KTOR

Torrington Municipal Airport

Torrington, Wyoming, USA
METAR KTOR 200453Z AUTO 34008KT 10SM CLR 12/10 A3010 RMK AO2 SLP168 T01220100
Observed Flight Rules
Jun-20 @ 04:53 UTC (46 minutes ago) Visual Flight Rules
Wind Visibility Clouds
340° at 8 knots 10 miles
  • Clear skies
Temperatures Readings
Current 12°C / 54°F
Dewpoint 10°C / 50°F
Humidity 88%
Altimeter 30.1" Hg
Pressure 1016.8 hPa
Elevation 1277
METAR KTOR 200453Z AUTO 34008KT 10SM CLR 12/10 A3010 RMK AO2 SLP168 T01220100
Observed Flight Rules
Jun-20 @ 04:53 UTC
(46 minutes ago)
VFR
Wind Visibility
340° at 8 knots 10 miles
Clouds
  • Clear skies
Temperature Dewpoint
12°C / 54°F 10°C / 50°F
Humidity Altimeter Pressure
88% 30.1" Hg 1016.8 hPa